Time;durP1;ratioP1;P1;durP2;ratioP2;P2;SDS_P1;SDS_P2;PMS_P1;PMS_P2;Temp;Humidity;BMP_temperature;BMP_pressure;BME280_temperature;BME280_humidity;BME280_pressure;Samples;Min_cycle;Max_cycle;Signal;HPM_P1;HPM_P2
2022/10/09 00:01:24;;;;;;;4.30;2.00;;;10.40;89.90;;;;;;5042920;28;20223;-61
2022/10/09 00:03:53;;;;;;;6.47;1.90;;;10.30;89.10;;;;;;5035153;28;20210;-62
2022/10/09 00:06:22;;;;;;;2.90;1.55;;;10.30;89.00;;;;;;5052698;28;20581;-61
2022/10/09 00:08:49;;;;;;;8.55;2.22;;;10.30;87.40;;;;;;5051340;28;20200;-62
2022/10/09 00:11:18;;;;;;;5.78;2.28;;;10.30;88.50;;;;;;5061104;28;20201;-62
2022/10/09 00:13:46;;;;;;;6.22;2.03;;;10.30;90.00;;;;;;5027982;28;20356;-62
2022/10/09 00:16:16;;;;;;;13.90;2.20;;;10.30;89.60;;;;;;5056296;28;20200;-61
2022/10/09 00:18:43;;;;;;;3.33;1.80;;;10.30;87.20;;;;;;5059773;28;20228;-61
2022/10/09 00:21:18;;;;;;;5.03;2.03;;;10.30;87.70;;;;;;5022491;28;20274;-61
2022/10/09 00:23:45;;;;;;;6.18;1.85;;;10.30;90.20;;;;;;5048519;28;20281;-61
2022/10/09 00:26:12;;;;;;;6.30;2.28;;;10.30;90.40;;;;;;5051756;28;20227;-61
2022/10/09 00:28:39;;;;;;;11.48;2.22;;;10.30;90.50;;;;;;5059925;28;20283;-61
2022/10/09 00:31:07;;;;;;;5.88;2.00;;;10.20;89.30;;;;;;5031149;28;20235;-61
2022/10/09 00:33:36;;;;;;;3.25;1.73;;;10.30;89.30;;;;;;5061211;28;20201;-61
2022/10/09 00:36:03;;;;;;;4.45;1.77;;;10.20;90.50;;;;;;5024574;28;20677;-61
2022/10/09 00:38:30;;;;;;;6.60;2.35;;;10.20;90.50;;;;;;5054611;28;20228;-61
2022/10/09 00:40:57;;;;;;;12.23;2.38;;;10.20;91.00;;;;;;5044544;28;20227;-61
2022/10/09 00:43:39;;;;;;;4.63;1.95;;;10.20;91.10;;;;;;5057995;28;20880;-61
2022/10/09 00:46:07;;;;;;;7.28;2.10;;;10.20;90.90;;;;;;5041585;28;20212;-64
2022/10/09 00:48:35;;;;;;;8.02;2.53;;;10.20;91.30;;;;;;5057574;28;20208;-61
2022/10/09 00:51:02;;;;;;;7.43;2.30;;;10.20;91.30;;;;;;5027529;28;20207;-62
2022/10/09 00:53:30;;;;;;;4.22;1.77;;;10.20;91.30;;;;;;5055466;28;20205;-61
2022/10/09 00:55:57;;;;;;;3.83;1.75;;;10.20;91.10;;;;;;5050799;28;20203;-61
2022/10/09 00:58:25;;;;;;;5.90;2.13;;;10.20;91.10;;;;;;5063428;28;20212;-61
2022/10/09 01:00:53;;;;;;;3.33;1.60;;;10.10;91.70;;;;;;5040096;28;21120;-61
2022/10/09 01:03:20;;;;;;;6.13;2.42;;;10.10;91.90;;;;;;5055017;28;20200;-62
2022/10/09 01:05:59;;;;;;;5.60;2.33;;;10.10;91.70;;;;;;5033882;28;20296;-62
2022/10/09 01:08:29;;;;;;;8.27;2.30;;;10.10;92.40;;;;;;5050708;28;20303;-63
2022/10/09 01:11:03;;;;;;;2.78;1.67;;;10.10;92.20;;;;;;5053981;28;20196;-61
2022/10/09 01:13:36;;;;;;;5.03;1.92;;;10.10;93.10;;;;;;5065024;28;20291;-62
2022/10/09 01:16:07;;;;;;;5.20;2.03;;;10.10;92.60;;;;;;5041085;28;20312;-62
2022/10/09 01:18:42;;;;;;;3.83;2.00;;;10.10;93.00;;;;;;5052129;28;20213;-61
2022/10/09 01:21:15;;;;;;;6.32;2.30;;;10.00;93.10;;;;;;5030972;28;20226;-61
2022/10/09 01:23:58;;;;;;;6.88;2.15;;;10.10;92.80;;;;;;5050859;28;20207;-61
2022/10/09 01:26:45;;;;;;;7.57;2.65;;;10.00;93.10;;;;;;5061474;28;20803;-62
2022/10/09 01:29:18;;;;;;;6.85;2.03;;;9.90;93.60;;;;;;5040716;28;20954;-61
2022/10/09 01:31:48;;;;;;;6.65;2.00;;;9.90;94.10;;;;;;5049037;28;20694;-61
2022/10/09 01:34:17;;;;;;;5.30;2.20;;;10.00;93.90;;;;;;5038513;28;20589;-61
2022/10/09 01:36:44;;;;;;;5.82;2.05;;;10.00;94.30;;;;;;5036840;28;20201;-61
2022/10/09 01:39:15;;;;;;;8.57;2.35;;;10.00;92.90;;;;;;5038022;28;20232;-61
2022/10/09 01:41:43;;;;;;;6.13;1.85;;;9.90;85.70;;;;;;5054207;28;20224;-61
2022/10/09 01:44:19;;;;;;;5.65;2.03;;;9.70;72.90;;;;;;5059021;28;20200;-61
2022/10/09 01:46:46;;;;;;;3.08;1.70;;;9.50;64.50;;;;;;5058516;28;20211;-61
2022/10/09 01:49:25;;;;;;;5.18;2.28;;;9.30;64.00;;;;;;5040661;28;20208;-61
2022/10/09 01:52:01;;;;;;;6.78;2.05;;;9.20;65.40;;;;;;5032568;28;20234;-61
2022/10/09 01:54:37;;;;;;;7.32;2.65;;;9.10;69.30;;;;;;5053731;28;20203;-61
2022/10/09 01:57:06;;;;;;;6.47;2.22;;;9.20;80.70;;;;;;5046196;28;20207;-61
2022/10/09 01:59:38;;;;;;;3.92;2.22;;;9.20;82.70;;;;;;5034083;28;20200;-62
2022/10/09 02:02:07;;;;;;;5.13;2.13;;;9.30;83.60;;;;;;5055128;28;20220;-62
2022/10/09 02:04:35;;;;;;;5.30;2.42;;;9.20;75.40;;;;;;5033568;28;20673;-61
2022/10/09 02:07:02;;;;;;;7.75;2.13;;;9.20;74.30;;;;;;5036376;28;20216;-61
2022/10/09 02:09:30;;;;;;;7.20;2.10;;;9.20;72.30;;;;;;5053909;28;20211;-61
2022/10/09 02:12:04;;;;;;;3.67;1.83;;;9.20;68.20;;;;;;5057899;28;20708;-61
2022/10/09 02:14:31;;;;;;;6.20;2.58;;;9.20;63.80;;;;;;5044543;28;20205;-62
2022/10/09 02:17:04;;;;;;;4.63;2.05;;;9.20;62.30;;;;;;5060234;28;20197;-61
2022/10/09 02:19:39;;;;;;;3.50;1.92;;;9.10;61.80;;;;;;5054718;28;20204;-61
2022/10/09 02:22:10;;;;;;;3.77;1.90;;;9.00;61.10;;;;;;5037366;28;20227;-61
2022/10/09 02:24:39;;;;;;;3.57;2.13;;;8.90;65.00;;;;;;5039594;28;20204;-61
2022/10/09 02:27:06;;;;;;;6.18;2.00;;;8.90;70.00;;;;;;5048301;28;20858;-61
2022/10/09 02:29:33;;;;;;;4.72;2.08;;;8.90;74.00;;;;;;5042916;28;20207;-61
2022/10/09 02:32:02;;;;;;;3.65;2.25;;;8.80;71.60;;;;;;5060683;28;20231;-62
2022/10/09 02:34:29;;;;;;;3.60;2.00;;;8.70;75.50;;;;;;5057330;28;20956;-61
2022/10/09 02:36:55;;;;;;;10.57;2.42;;;8.80;79.00;;;;;;5045569;28;20239;-61
2022/10/09 02:39:22;;;;;;;6.50;2.20;;;8.80;79.00;;;;;;5036924;28;21011;-60
2022/10/09 02:41:49;;;;;;;8.23;2.23;;;8.80;82.50;;;;;;5050012;28;20236;-60
2022/10/09 02:44:16;;;;;;;6.27;2.30;;;8.90;85.20;;;;;;5048070;28;20210;-62
2022/10/09 02:46:43;;;;;;;6.93;2.43;;;8.90;86.80;;;;;;5061335;28;20204;-61
2022/10/09 02:49:11;;;;;;;5.20;2.23;;;8.90;86.10;;;;;;5058441;28;20759;-61
2022/10/09 02:51:38;;;;;;;7.95;2.65;;;8.90;90.10;;;;;;5031025;28;20592;-61
2022/10/09 02:54:05;;;;;;;4.93;2.20;;;8.90;90.50;;;;;;5031349;28;20240;-61
2022/10/09 02:56:32;;;;;;;4.30;2.37;;;9.00;90.60;;;;;;5050399;28;20201;-61
2022/10/09 02:58:59;;;;;;;4.85;2.65;;;9.10;90.80;;;;;;5061917;28;20665;-61
2022/10/09 03:01:26;;;;;;;6.20;2.20;;;9.10;90.40;;;;;;5041807;28;20232;-61
2022/10/09 03:03:53;;;;;;;4.68;2.33;;;9.00;89.20;;;;;;5062061;28;20214;-61
2022/10/09 03:06:23;;;;;;;4.20;2.27;;;9.00;89.00;;;;;;5034339;28;20740;-61
2022/10/09 03:08:52;;;;;;;6.55;2.20;;;9.10;89.80;;;;;;5030886;28;20196;-61
2022/10/09 03:11:20;;;;;;;3.60;2.00;;;9.00;89.80;;;;;;5059966;28;20872;-61
2022/10/09 03:13:48;;;;;;;3.88;2.25;;;9.00;90.00;;;;;;5046857;28;20212;-61
2022/10/09 03:16:16;;;;;;;6.75;2.38;;;9.00;89.50;;;;;;5053213;28;20211;-61
2022/10/09 03:18:44;;;;;;;8.25;2.30;;;8.90;86.90;;;;;;5063098;28;20201;-61
2022/10/09 03:21:12;;;;;;;5.82;2.63;;;8.80;88.00;;;;;;5050886;28;20232;-61
2022/10/09 03:23:41;;;;;;;3.07;2.13;;;8.90;89.10;;;;;;5022438;28;20689;-61
2022/10/09 03:26:11;;;;;;;6.30;2.78;;;8.70;88.90;;;;;;5057889;28;20637;-61
2022/10/09 03:28:39;;;;;;;3.40;2.20;;;8.80;89.50;;;;;;5051563;28;20204;-61
2022/10/09 03:31:06;;;;;;;4.63;2.10;;;8.80;91.00;;;;;;5057530;28;20200;-61
2022/10/09 03:33:34;;;;;;;4.20;2.23;;;8.80;91.10;;;;;;5050732;28;20200;-61
2022/10/09 03:36:01;;;;;;;5.80;2.43;;;8.80;90.00;;;;;;5054530;28;20210;-61
2022/10/09 03:38:28;;;;;;;3.53;2.17;;;8.70;87.10;;;;;;5039437;28;20263;-61
2022/10/09 03:40:58;;;;;;;7.03;2.20;;;8.70;89.10;;;;;;5038678;28;20230;-61
2022/10/09 03:43:25;;;;;;;2.40;2.20;;;8.60;89.10;;;;;;5050897;28;20204;-61
2022/10/09 03:45:52;;;;;;;4.10;2.47;;;8.60;86.30;;;;;;5059252;28;20188;-61
2022/10/09 03:48:19;;;;;;;4.17;2.80;;;8.50;82.50;;;;;;5052227;28;20205;-61
2022/10/09 03:50:46;;;;;;;7.00;2.57;;;8.50;82.20;;;;;;5061103;28;20220;-61
2022/10/09 03:53:13;;;;;;;5.03;2.37;;;8.50;83.90;;;;;;5033605;28;20211;-61
2022/10/09 03:55:41;;;;;;;4.03;2.50;;;8.50;86.40;;;;;;5037201;28;20290;-61
2022/10/09 03:58:10;;;;;;;6.50;2.90;;;8.40;79.30;;;;;;5033677;28;20207;-61
2022/10/09 04:00:37;;;;;;;3.57;2.40;;;8.50;83.40;;;;;;5061972;28;20657;-60
2022/10/09 04:03:04;;;;;;;3.87;2.43;;;8.50;89.30;;;;;;5036651;28;20447;-61
2022/10/09 04:05:33;;;;;;;6.03;2.77;;;8.50;89.70;;;;;;5068200;28;20192;-61
2022/10/09 04:08:00;;;;;;;6.13;2.90;;;8.40;84.90;;;;;;5040871;28;20679;-62
2022/10/09 04:10:26;;;;;;;3.40;2.70;;;8.40;84.80;;;;;;5064467;28;20196;-61
2022/10/09 04:12:53;;;;;;;7.17;2.37;;;8.50;86.20;;;;;;5037046;28;20204;-61
2022/10/09 04:15:21;;;;;;;6.60;2.50;;;8.60;88.40;;;;;;5057523;28;20196;-61
2022/10/09 04:17:48;;;;;;;5.43;2.60;;;8.60;88.20;;;;;;5049977;28;20211;-61
2022/10/09 04:20:15;;;;;;;5.90;2.33;;;8.70;90.00;;;;;;5056285;28;20211;-61
2022/10/09 04:22:42;;;;;;;3.37;2.50;;;8.70;88.10;;;;;;5065242;28;20223;-61
2022/10/09 04:25:09;;;;;;;5.40;2.20;;;8.70;86.50;;;;;;5045132;28;20721;-61
2022/10/09 04:27:36;;;;;;;4.47;2.60;;;8.70;85.10;;;;;;5038141;28;20213;-61
2022/10/09 04:30:03;;;;;;;7.13;2.33;;;8.70;83.70;;;;;;5053200;28;20204;-62
2022/10/09 04:32:32;;;;;;;3.77;1.87;;;8.60;81.20;;;;;;5058496;28;20200;-61
2022/10/09 04:34:58;;;;;;;3.17;2.27;;;8.70;84.00;;;;;;5041533;28;20208;-61
2022/10/09 04:37:25;;;;;;;2.53;2.03;;;8.60;82.80;;;;;;5067877;28;20220;-63
2022/10/09 04:39:52;;;;;;;5.57;2.63;;;8.60;80.90;;;;;;5042578;28;20758;-61
2022/10/09 04:42:19;;;;;;;2.37;2.17;;;8.60;81.80;;;;;;5037892;28;20232;-61
2022/10/09 04:44:45;;;;;;;4.03;2.60;;;8.60;81.80;;;;;;5052868;28;20209;-61
2022/10/09 04:47:12;;;;;;;4.47;3.13;;;8.60;88.50;;;;;;5064656;28;20629;-61
2022/10/09 04:49:40;;;;;;;4.90;2.40;;;8.60;89.50;;;;;;5055839;28;20554;-60
2022/10/09 04:52:07;;;;;;;3.70;1.80;;;8.60;90.40;;;;;;5057615;28;20204;-61
2022/10/09 04:54:34;;;;;;;6.00;2.33;;;8.60;90.80;;;;;;5065312;28;20192;-61
2022/10/09 04:57:01;;;;;;;5.63;2.07;;;8.70;89.70;;;;;;5012916;28;20207;-61
2022/10/09 04:59:28;;;;;;;2.20;1.73;;;8.60;88.40;;;;;;5068684;28;20196;-61
2022/10/09 05:01:54;;;;;;;6.67;2.23;;;8.60;84.30;;;;;;5046388;28;20265;-61
2022/10/09 05:04:21;;;;;;;4.30;2.43;;;8.50;83.00;;;;;;5050909;28;20196;-61
2022/10/09 05:06:49;;;;;;;6.03;2.10;;;8.50;87.40;;;;;;5054354;28;20202;-61
2022/10/09 05:09:16;;;;;;;5.90;2.85;;;8.50;83.90;;;;;;5063036;28;20596;-61
2022/10/09 05:11:43;;;;;;;3.80;2.10;;;8.40;81.50;;;;;;5044744;28;20204;-61
2022/10/09 05:14:10;;;;;;;5.43;2.30;;;8.40;83.10;;;;;;5019990;28;20673;-62
2022/10/09 05:16:37;;;;;;;5.17;2.30;;;8.40;83.80;;;;;;5065911;28;20188;-61
2022/10/09 05:19:04;;;;;;;2.73;2.20;;;8.40;82.00;;;;;;5041915;28;20684;-61
2022/10/09 05:21:31;;;;;;;3.60;2.20;;;8.40;81.40;;;;;;5063687;28;20216;-61
2022/10/09 05:23:59;;;;;;;3.93;2.03;;;8.30;79.30;;;;;;5050806;28;20204;-61
2022/10/09 05:26:26;;;;;;;3.90;2.40;;;8.30;79.30;;;;;;5046878;28;21023;-61
2022/10/09 05:28:53;;;;;;;3.83;2.43;;;8.30;82.70;;;;;;5034316;28;20210;-61
2022/10/09 05:31:22;;;;;;;5.80;2.40;;;8.40;84.50;;;;;;5063704;28;20210;-61
2022/10/09 05:33:49;;;;;;;9.67;2.80;;;8.40;85.70;;;;;;5059529;28;20200;-61
2022/10/09 05:36:16;;;;;;;3.17;2.13;;;8.40;87.40;;;;;;5041090;28;20226;-61
2022/10/09 05:38:44;;;;;;;6.47;2.57;;;8.40;89.70;;;;;;5054909;28;20224;-61
2022/10/09 05:41:14;;;;;;;6.13;2.43;;;8.40;91.30;;;;;;5057878;28;20202;-61
2022/10/09 05:43:45;;;;;;;3.90;2.23;;;8.40;90.20;;;;;;5014950;28;20215;-61
2022/10/09 05:46:14;;;;;;;5.27;2.60;;;8.30;90.60;;;;;;5061563;28;20920;-61
2022/10/09 05:48:42;;;;;;;3.83;2.50;;;8.40;91.70;;;;;;5056962;28;20695;-61
2022/10/09 05:51:12;;;;;;;3.57;2.20;;;8.40;91.90;;;;;;5052511;28;20196;-61
2022/10/09 05:53:39;;;;;;;5.50;2.70;;;8.40;93.00;;;;;;5052814;28;20231;-61
2022/10/09 05:56:15;;;;;;;2.23;2.03;;;8.40;94.00;;;;;;5064480;28;20203;-61
2022/10/09 05:58:43;;;;;;;6.20;2.10;;;8.30;93.70;;;;;;5016933;28;20204;-61
2022/10/09 06:01:10;;;;;;;6.70;2.33;;;8.30;94.50;;;;;;5038729;28;22894;-62
2022/10/09 06:03:37;;;;;;;3.07;2.47;;;8.40;94.90;;;;;;5042314;28;20200;-61
2022/10/09 06:06:06;;;;;;;3.97;2.77;;;8.40;95.30;;;;;;5044895;28;20572;-61
2022/10/09 06:08:34;;;;;;;4.67;2.43;;;8.30;95.40;;;;;;5033180;28;20701;-61
2022/10/09 06:11:09;;;;;;;3.27;2.77;;;8.30;95.50;;;;;;5060980;28;23558;-61
2022/10/09 06:13:37;;;;;;;5.17;2.83;;;8.30;95.80;;;;;;5010996;28;20661;-61
2022/10/09 06:16:04;;;;;;;3.50;2.87;;;8.30;96.40;;;;;;5057718;28;20267;-61
2022/10/09 06:18:31;;;;;;;6.53;3.60;;;8.30;97.20;;;;;;5053642;28;20200;-61
2022/10/09 06:21:00;;;;;;;4.70;3.30;;;8.40;97.80;;;;;;5043354;28;20216;-61
2022/10/09 06:23:28;;;;;;;5.93;3.33;;;8.40;98.60;;;;;;5046330;28;20240;-61
2022/10/09 06:25:56;;;;;;;5.03;3.60;;;8.40;98.70;;;;;;5045816;28;20205;-61
2022/10/09 06:28:23;;;;;;;8.50;3.50;;;8.40;99.30;;;;;;5051021;28;20197;-61
2022/10/09 06:30:52;;;;;;;7.47;3.87;;;8.50;99.80;;;;;;5020704;28;20223;-61
2022/10/09 06:33:18;;;;;;;4.60;3.33;;;8.50;99.80;;;;;;5061341;28;20211;-60
2022/10/09 06:35:45;;;;;;;4.50;3.27;;;8.50;99.90;;;;;;5050046;28;20230;-61
2022/10/09 06:38:14;;;;;;;6.88;3.47;;;8.60;99.90;;;;;;5047154;28;20227;-61
2022/10/09 06:40:41;;;;;;;6.57;3.60;;;8.60;99.90;;;;;;5033976;28;20305;-61
2022/10/09 06:43:08;;;;;;;5.87;3.80;;;8.60;99.90;;;;;;5047539;28;20622;-61
2022/10/09 06:45:38;;;;;;;11.17;3.67;;;8.70;99.90;;;;;;4998238;28;20212;-61
2022/10/09 06:48:06;;;;;;;5.63;3.37;;;8.70;99.90;;;;;;5061568;28;20209;-61
2022/10/09 06:50:36;;;;;;;3.87;3.47;;;8.80;99.90;;;;;;5055254;28;21015;-61
2022/10/09 06:53:04;;;;;;;8.80;4.50;;;8.70;99.90;;;;;;5045931;28;20224;-61
2022/10/09 06:55:32;;;;;;;5.87;4.10;;;8.80;99.90;;;;;;5031189;28;20209;-61
2022/10/09 06:57:59;;;;;;;6.60;4.73;;;8.80;99.90;;;;;;5064649;28;20223;-61
2022/10/09 07:00:26;;;;;;;6.47;3.67;;;8.80;99.90;;;;;;5024216;28;20295;-61
2022/10/09 07:02:53;;;;;;;9.47;3.57;;;8.90;99.90;;;;;;5045082;28;20365;-61
2022/10/09 07:05:21;;;;;;;4.13;3.40;;;8.80;99.90;;;;;;5061278;28;20203;-61
2022/10/09 07:07:48;;;;;;;5.87;3.83;;;8.90;99.90;;;;;;5046082;28;20204;-61
2022/10/09 07:10:15;;;;;;;6.93;3.80;;;8.90;99.90;;;;;;5051457;28;20196;-61
2022/10/09 07:12:42;;;;;;;6.23;3.93;;;8.90;99.90;;;;;;5041452;28;20207;-61
2022/10/09 07:15:10;;;;;;;6.67;3.37;;;9.00;99.90;;;;;;5024643;28;26106;-61
2022/10/09 07:17:36;;;;;;;5.23;3.63;;;9.00;99.90;;;;;;5025609;28;20205;-61
2022/10/09 07:20:03;;;;;;;5.80;4.00;;;9.10;99.90;;;;;;5061250;28;20681;-61
2022/10/09 07:22:32;;;;;;;12.80;3.95;;;9.10;99.90;;;;;;5045661;28;20223;-61
2022/10/09 07:24:59;;;;;;;4.30;3.90;;;9.10;99.90;;;;;;5046327;28;20208;-60
2022/10/09 07:27:26;;;;;;;5.47;4.07;;;9.20;99.90;;;;;;5045043;28;20228;-61
2022/10/09 07:29:52;;;;;;;7.38;3.88;;;9.20;99.90;;;;;;5056838;28;20204;-61
2022/10/09 07:32:19;;;;;;;9.47;4.93;;;9.30;99.90;;;;;;5013362;28;20211;-61
2022/10/09 07:34:46;;;;;;;10.70;4.37;;;9.30;99.90;;;;;;5042260;28;20224;-61
2022/10/09 07:37:13;;;;;;;9.00;4.88;;;9.40;99.90;;;;;;5045873;28;20230;-61
2022/10/09 07:39:41;;;;;;;7.90;3.83;;;9.50;99.90;;;;;;5048002;28;20270;-61
2022/10/09 07:42:08;;;;;;;5.97;4.40;;;9.70;99.90;;;;;;5036201;28;20246;-61
2022/10/09 07:44:34;;;;;;;4.80;4.30;;;9.60;99.90;;;;;;5057358;28;20224;-61
2022/10/09 07:47:01;;;;;;;6.85;4.00;;;9.70;99.90;;;;;;5034481;28;20204;-61
2022/10/09 07:49:28;;;;;;;9.95;4.45;;;9.70;99.90;;;;;;5036000;28;20203;-61
2022/10/09 07:51:55;;;;;;;9.77;4.43;;;9.70;99.90;;;;;;5054794;28;20221;-61
2022/10/09 07:54:22;;;;;;;9.02;5.22;;;9.80;99.90;;;;;;5026542;28;20413;-61
2022/10/09 07:56:50;;;;;;;7.05;4.70;;;9.80;99.90;;;;;;5058534;28;20208;-61
2022/10/09 07:59:17;;;;;;;7.82;4.38;;;9.90;99.90;;;;;;5042498;28;20223;-61
2022/10/09 08:01:44;;;;;;;6.10;4.53;;;9.90;99.90;;;;;;5055353;28;20294;-60
2022/10/09 08:04:11;;;;;;;8.73;4.97;;;10.00;99.90;;;;;;5011013;28;20323;-61
2022/10/09 08:06:38;;;;;;;10.00;5.88;;;10.10;99.90;;;;;;5058666;28;20200;-61
2022/10/09 08:09:07;;;;;;;11.18;6.47;;;10.10;99.90;;;;;;5037844;28;20211;-61
2022/10/09 08:11:39;;;;;;;13.45;7.38;;;10.10;99.90;;;;;;5022365;28;20740;-61
2022/10/09 08:14:09;;;;;;;9.60;6.55;;;10.20;99.90;;;;;;5043246;28;20231;-61
2022/10/09 08:16:35;;;;;;;9.27;6.82;;;10.20;99.90;;;;;;5050064;28;20242;-61
2022/10/09 08:21:28;;;;;;;12.32;7.13;;;10.20;99.90;;;;;;4994718;22;20233;-61
2022/10/09 08:23:56;;;;;;;8.23;6.00;;;10.30;99.90;;;;;;4969838;28;20235;-61
2022/10/09 08:26:25;;;;;;;10.07;5.93;;;10.30;99.90;;;;;;4959645;28;20227;-61
2022/10/09 08:28:53;;;;;;;8.90;5.22;;;10.30;99.90;;;;;;4952323;28;20252;-61
2022/10/09 08:31:22;;;;;;;6.22;4.97;;;10.30;99.90;;;;;;4978923;28;20576;-62
2022/10/09 08:33:52;;;;;;;8.15;4.25;;;10.40;99.90;;;;;;4996372;23;20389;-61
2022/10/09 08:36:19;;;;;;;6.90;4.45;;;10.40;99.90;;;;;;4944609;28;20229;-61
2022/10/09 08:38:46;;;;;;;8.52;4.28;;;10.50;99.90;;;;;;4955649;28;20572;-61
2022/10/09 08:41:21;;;;;;;11.90;4.93;;;10.50;99.90;;;;;;4936722;28;20542;-61
2022/10/09 08:43:52;;;;;;;7.63;4.22;;;10.50;99.90;;;;;;4975230;28;20238;-61
2022/10/09 08:46:25;;;;;;;4.88;3.70;;;10.60;99.90;;;;;;4956367;28;20866;-62
2022/10/09 08:48:54;;;;;;;7.57;4.20;;;10.50;99.90;;;;;;4966526;28;20199;-61
2022/10/09 08:51:26;;;;;;;5.57;3.92;;;10.60;99.90;;;;;;4935981;28;20895;-61
2022/10/09 08:53:58;;;;;;;6.53;4.10;;;10.60;99.90;;;;;;4959592;28;20716;-62
2022/10/09 08:56:27;;;;;;;6.70;3.92;;;10.70;99.90;;;;;;4973297;28;20206;-61
2022/10/09 08:58:53;;;;;;;7.10;3.92;;;10.70;99.90;;;;;;4961424;28;20207;-61
2022/10/09 09:01:34;;;;;;;6.15;3.97;;;10.70;99.90;;;;;;4956462;28;20688;-61
2022/10/09 09:04:27;;;;;;;10.57;3.95;;;10.80;99.90;;;;;;4951994;28;20494;-61
2022/10/09 09:07:04;;;;;;;10.30;3.90;;;10.90;99.90;;;;;;4946206;28;20222;-62
2022/10/09 09:09:40;;;;;;;10.50;3.70;;;10.90;99.90;;;;;;4981745;28;20224;-61
2022/10/09 09:12:12;;;;;;;6.78;3.63;;;11.00;99.90;;;;;;4970810;28;20233;-61
2022/10/09 09:14:50;;;;;;;10.55;3.40;;;11.10;99.90;;;;;;4967195;28;20227;-61
2022/10/09 09:17:29;;;;;;;12.48;3.92;;;11.10;99.90;;;;;;4937140;28;20223;-61
2022/10/09 09:20:10;;;;;;;12.23;3.78;;;11.10;99.90;;;;;;4953443;28;20230;-61
2022/10/09 09:22:41;;;;;;;8.48;2.90;;;11.20;99.90;;;;;;4942134;28;20235;-61
2022/10/09 09:25:18;;;;;;;9.05;3.80;;;11.30;99.90;;;;;;4974165;28;20223;-61
2022/10/09 09:27:46;;;;;;;8.63;4.28;;;11.30;99.90;;;;;;4974201;28;20206;-62
2022/10/09 09:30:18;;;;;;;10.32;3.95;;;11.40;99.90;;;;;;4967362;28;20298;-61
2022/10/09 09:32:54;;;;;;;5.85;3.20;;;11.40;99.90;;;;;;4968652;28;21104;-61
2022/10/09 09:35:28;;;;;;;9.70;3.38;;;11.50;99.90;;;;;;4953431;28;20711;-61
2022/10/09 09:37:55;;;;;;;7.55;3.47;;;11.50;99.90;;;;;;4943765;28;20592;-62
2022/10/09 09:40:29;;;;;;;6.60;3.53;;;11.50;99.90;;;;;;4949429;28;20210;-62
2022/10/09 09:42:56;;;;;;;11.23;3.80;;;11.60;99.90;;;;;;4966161;28;20340;-62
2022/10/09 09:45:25;;;;;;;10.27;3.80;;;11.70;99.90;;;;;;4968578;28;20226;-62
2022/10/09 09:47:57;;;;;;;6.30;3.33;;;11.70;99.90;;;;;;4958928;28;20211;-62
2022/10/09 09:50:33;;;;;;;8.65;3.10;;;11.80;99.90;;;;;;4982280;28;20989;-62
2022/10/09 09:53:04;;;;;;;12.23;2.70;;;11.80;99.90;;;;;;4939073;28;20209;-62
2022/10/09 09:55:33;;;;;;;3.50;2.80;;;11.90;99.90;;;;;;4967186;28;20762;-62
2022/10/09 09:58:03;;;;;;;6.15;2.83;;;11.90;99.90;;;;;;4958170;28;20702;-62
2022/10/09 10:00:30;;;;;;;4.80;2.38;;;11.90;99.90;;;;;;4954431;28;20221;-61
2022/10/09 10:03:12;;;;;;;3.75;2.50;;;12.00;99.90;;;;;;4954898;28;20346;-61
2022/10/09 10:05:40;;;;;;;5.97;2.85;;;12.30;99.90;;;;;;4977149;28;20949;-62
2022/10/09 10:08:15;;;;;;;8.05;2.08;;;12.30;99.90;;;;;;4921027;28;20231;-61
2022/10/09 10:10:46;;;;;;;7.53;2.83;;;12.60;99.90;;;;;;4977384;28;20260;-62
2022/10/09 10:13:18;;;;;;;5.80;2.60;;;12.80;99.90;;;;;;4972326;28;20370;-62
2022/10/09 10:15:54;;;;;;;4.90;2.58;;;12.80;99.90;;;;;;4970471;28;21000;-62
2022/10/09 10:18:24;;;;;;;8.88;2.65;;;12.70;99.90;;;;;;4959689;28;20200;-62
2022/10/09 10:20:53;;;;;;;4.65;2.50;;;12.60;99.90;;;;;;4978831;28;20772;-63
2022/10/09 10:23:31;;;;;;;9.40;2.95;;;12.60;99.90;;;;;;4939580;28;20235;-62
2022/10/09 10:26:00;;;;;;;4.95;2.25;;;12.50;99.90;;;;;;4969444;28;20673;-62
2022/10/09 10:28:31;;;;;;;6.40;2.35;;;12.60;99.90;;;;;;4960255;28;20195;-62
2022/10/09 10:31:02;;;;;;;4.40;1.70;;;12.60;99.90;;;;;;4963344;28;20234;-61
2022/10/09 10:33:33;;;;;;;3.10;1.50;;;12.60;99.90;;;;;;4954229;28;20222;-62
2022/10/09 10:36:01;;;;;;;2.58;1.55;;;12.60;99.90;;;;;;4963783;28;20577;-61
2022/10/09 10:38:32;;;;;;;2.30;1.60;;;12.50;99.90;;;;;;4937413;28;21130;-61
2022/10/09 10:41:09;;;;;;;3.42;1.85;;;12.40;99.90;;;;;;4978743;28;20218;-61
2022/10/09 10:43:41;;;;;;;6.53;1.80;;;12.40;99.90;;;;;;4981292;28;20296;-62
2022/10/09 10:46:17;;;;;;;13.60;2.10;;;12.50;99.90;;;;;;4951289;28;20223;-62
2022/10/09 10:48:47;;;;;;;9.95;2.17;;;12.50;99.90;;;;;;4971886;28;20556;-62
2022/10/09 10:51:33;;;;;;;4.95;1.95;;;12.50;99.90;;;;;;4969579;28;20207;-62
2022/10/09 10:54:13;;;;;;;8.50;2.00;;;12.50;99.90;;;;;;4963611;28;20207;-61
2022/10/09 10:56:44;;;;;;;13.15;2.20;;;12.60;99.90;;;;;;4973508;28;20226;-62
2022/10/09 10:59:29;;;;;;;3.17;2.10;;;12.60;99.90;;;;;;4980403;28;20225;-62
2022/10/09 11:02:22;;;;;;;7.00;2.15;;;12.60;99.90;;;;;;4948049;28;20207;-61
2022/10/09 11:04:57;;;;;;;11.15;2.00;;;12.60;99.90;;;;;;4966677;28;20258;-61
2022/10/09 11:07:32;;;;;;;8.93;2.20;;;12.60;99.90;;;;;;4965757;28;20203;-62
2022/10/09 11:10:06;;;;;;;5.18;1.77;;;12.60;99.90;;;;;;4968754;28;20214;-62
2022/10/09 11:12:42;;;;;;;3.75;1.88;;;12.70;99.90;;;;;;4962503;28;20297;-62
2022/10/09 11:15:20;;;;;;;7.45;1.77;;;12.80;99.90;;;;;;4967914;28;21071;-62
2022/10/09 11:17:54;;;;;;;3.88;1.52;;;12.80;99.90;;;;;;4937697;28;20611;-62
2022/10/09 11:20:52;;;;;;;7.80;2.10;;;12.90;99.90;;;;;;4955238;28;20914;-62
2022/10/09 11:23:34;;;;;;;3.38;1.77;;;12.90;99.90;;;;;;4947215;28;21536;-62
2022/10/09 11:26:08;;;;;;;12.38;2.15;;;12.90;99.90;;;;;;4929560;28;20226;-62
2022/10/09 11:28:40;;;;;;;4.90;1.50;;;13.00;99.90;;;;;;4960637;28;20209;-62
2022/10/09 11:31:13;;;;;;;5.15;1.77;;;13.00;99.90;;;;;;4967114;28;20593;-61
2022/10/09 11:33:45;;;;;;;8.48;2.75;;;12.90;99.90;;;;;;4963128;28;20227;-62
2022/10/09 11:36:19;;;;;;;5.75;1.98;;;12.90;99.90;;;;;;4968435;28;20687;-62
2022/10/09 11:38:51;;;;;;;7.32;1.85;;;13.00;99.90;;;;;;4967532;28;20206;-61
2022/10/09 11:41:18;;;;;;;4.82;1.73;;;13.10;99.90;;;;;;4953122;28;20711;-62
2022/10/09 11:44:07;;;;;;;10.38;2.20;;;13.10;99.90;;;;;;4981288;28;20226;-62
2022/10/09 11:46:41;;;;;;;4.80;1.70;;;13.20;99.90;;;;;;4960742;28;20580;-61
2022/10/09 11:49:19;;;;;;;5.97;1.77;;;13.20;99.90;;;;;;4972167;28;20205;-61
2022/10/09 11:51:55;;;;;;;4.80;1.83;;;13.30;99.90;;;;;;4982667;28;20205;-62
2022/10/09 11:54:24;;;;;;;6.75;1.85;;;13.30;99.90;;;;;;4970277;28;20206;-62
2022/10/09 11:56:58;;;;;;;5.18;1.90;;;13.30;99.90;;;;;;4963218;28;20207;-63
2022/10/09 11:59:29;;;;;;;4.70;1.80;;;13.30;99.90;;;;;;4964899;28;20967;-62
2022/10/09 12:01:57;;;;;;;5.47;1.80;;;13.30;99.90;;;;;;4971899;28;20207;-62
2022/10/09 12:04:30;;;;;;;5.05;1.88;;;13.30;99.90;;;;;;4968702;28;21142;-62
2022/10/09 12:07:00;;;;;;;8.65;1.65;;;13.30;99.90;;;;;;4972605;28;20203;-61
2022/10/09 12:09:31;;;;;;;5.97;1.88;;;13.40;99.90;;;;;;4946720;28;20223;-62
2022/10/09 12:12:02;;;;;;;3.67;2.00;;;13.40;99.90;;;;;;4949188;28;20234;-61
2022/10/09 12:14:30;;;;;;;11.75;2.00;;;13.50;99.90;;;;;;4941987;28;20322;-62
2022/10/09 12:16:58;;;;;;;5.97;2.08;;;13.50;99.90;;;;;;4956216;28;20226;-68
2022/10/09 12:19:29;;;;;;;7.85;1.80;;;13.40;99.90;;;;;;4950604;28;21481;-61
2022/10/09 12:22:03;;;;;;;7.82;1.60;;;13.50;99.90;;;;;;4962632;28;20203;-62
2022/10/09 12:24:36;;;;;;;5.78;1.50;;;13.50;99.90;;;;;;4971152;28;20231;-61
2022/10/09 12:27:04;;;;;;;6.80;1.60;;;13.50;99.90;;;;;;4969376;28;20214;-61
2022/10/09 12:29:36;;;;;;;5.82;1.60;;;13.60;99.90;;;;;;4953546;28;20260;-62
2022/10/09 12:32:07;;;;;;;8.35;2.03;;;13.60;99.90;;;;;;4958786;28;21013;-62
2022/10/09 12:34:38;;;;;;;3.95;1.55;;;13.60;99.90;;;;;;4958066;28;20235;-62
2022/10/09 12:37:15;;;;;;;6.97;1.98;;;13.60;99.90;;;;;;4959386;28;20230;-62
2022/10/09 12:39:42;;;;;;;4.18;1.65;;;13.60;99.90;;;;;;4982039;28;20221;-62
2022/10/09 12:42:19;;;;;;;3.20;1.40;;;13.60;99.90;;;;;;4955164;28;20215;-61
2022/10/09 12:44:46;;;;;;;6.55;1.40;;;13.60;99.90;;;;;;4947159;28;20223;-61
2022/10/09 12:47:21;;;;;;;3.83;1.30;;;13.70;99.90;;;;;;4948975;28;20213;-62
2022/10/09 12:49:56;;;;;;;4.60;1.63;;;13.70;99.90;;;;;;4954847;28;20207;-62
2022/10/09 12:52:24;;;;;;;3.80;1.60;;;13.70;99.90;;;;;;4977538;28;20421;-62
2022/10/09 12:54:51;;;;;;;3.22;1.30;;;13.70;99.90;;;;;;4970845;28;20202;-62
2022/10/09 12:57:19;;;;;;;3.83;1.50;;;13.70;99.90;;;;;;4968756;28;20207;-63
2022/10/09 12:59:48;;;;;;;9.60;1.65;;;13.80;99.90;;;;;;4975014;28;20244;-63
2022/10/09 13:02:19;;;;;;;4.07;1.58;;;13.80;99.90;;;;;;4956218;28;20362;-63
2022/10/09 13:05:00;;;;;;;5.30;1.75;;;13.80;99.90;;;;;;4970686;28;20236;-62
2022/10/09 13:07:31;;;;;;;3.67;1.65;;;13.80;99.90;;;;;;4972101;28;20250;-61